sensor_id;sensor_type;location;lat;lon;timestamp;pressure;altitude;pressure_sealevel;temperature;humidity
73024;BME280;61199;47.526;8.538;2022-07-03T00:00:36;96770.53;;;22.35;58.07
73024;BME280;61199;47.526;8.538;2022-07-03T00:03:02;96780.47;;;22.48;57.51
73024;BME280;61199;47.526;8.538;2022-07-03T00:05:27;96765.50;;;22.53;57.21
73024;BME280;61199;47.526;8.538;2022-07-03T00:07:52;96763.88;;;22.59;57.03
73024;BME280;61199;47.526;8.538;2022-07-03T00:10:18;96761.22;;;22.59;56.80
73024;BME280;61199;47.526;8.538;2022-07-03T00:12:43;96771.88;;;22.52;56.95
73024;BME280;61199;47.526;8.538;2022-07-03T00:15:09;96775.75;;;22.50;56.66
73024;BME280;61199;47.526;8.538;2022-07-03T00:17:34;96775.97;;;22.42;56.07
73024;BME280;61199;47.526;8.538;2022-07-03T00:19:59;96776.69;;;22.29;57.06
73024;BME280;61199;47.526;8.538;2022-07-03T00:22:26;96774.47;;;22.39;56.91
73024;BME280;61199;47.526;8.538;2022-07-03T00:24:57;96780.75;;;22.25;57.46
73024;BME280;61199;47.526;8.538;2022-07-03T00:27:26;96791.72;;;22.03;58.13
73024;BME280;61199;47.526;8.538;2022-07-03T00:29:53;96785.56;;;22.02;58.74
73024;BME280;61199;47.526;8.538;2022-07-03T00:32:24;96779.44;;;22.08;58.23
73024;BME280;61199;47.526;8.538;2022-07-03T00:34:51;96784.38;;;22.11;58.20
73024;BME280;61199;47.526;8.538;2022-07-03T00:37:17;96782.59;;;22.18;58.12
73024;BME280;61199;47.526;8.538;2022-07-03T00:39:43;96780.28;;;22.15;57.85
73024;BME280;61199;47.526;8.538;2022-07-03T00:42:10;96781.31;;;22.14;57.97
73024;BME280;61199;47.526;8.538;2022-07-03T00:47:12;96781.88;;;22.03;58.59
73024;BME280;61199;47.526;8.538;2022-07-03T00:49:39;96780.69;;;22.12;58.29
73024;BME280;61199;47.526;8.538;2022-07-03T00:52:05;96775.19;;;22.14;58.19
73024;BME280;61199;47.526;8.538;2022-07-03T00:54:35;96775.97;;;22.14;58.24
73024;BME280;61199;47.526;8.538;2022-07-03T00:57:02;96779.91;;;22.18;57.90
73024;BME280;61199;47.526;8.538;2022-07-03T00:59:28;96770.44;;;22.09;57.94
73024;BME280;61199;47.526;8.538;2022-07-03T01:02:03;96775.38;;;22.19;58.10
73024;BME280;61199;47.526;8.538;2022-07-03T01:10:10;96775.19;;;21.86;59.34
73024;BME280;61199;47.526;8.538;2022-07-03T01:12:52;96777.19;;;21.57;60.34
73024;BME280;61199;47.526;8.538;2022-07-03T01:15:46;96777.69;;;21.39;60.71
73024;BME280;61199;47.526;8.538;2022-07-03T01:18:27;96778.09;;;21.36;60.79
73024;BME280;61199;47.526;8.538;2022-07-03T01:21:01;96783.16;;;21.31;61.21
73024;BME280;61199;47.526;8.538;2022-07-03T01:26:27;96779.44;;;21.53;60.40
73024;BME280;61199;47.526;8.538;2022-07-03T01:28:58;96782.09;;;21.53;60.40
73024;BME280;61199;47.526;8.538;2022-07-03T01:31:30;96781.09;;;21.54;60.34
73024;BME280;61199;47.526;8.538;2022-07-03T01:33:58;96792.94;;;21.45;60.68
73024;BME280;61199;47.526;8.538;2022-07-03T01:36:28;96782.84;;;21.41;61.01
73024;BME280;61199;47.526;8.538;2022-07-03T01:38:55;96785.19;;;21.29;60.98
73024;BME280;61199;47.526;8.538;2022-07-03T01:41:24;96790.00;;;21.40;60.75
73024;BME280;61199;47.526;8.538;2022-07-03T01:43:56;96784.41;;;21.35;60.65
73024;BME280;61199;47.526;8.538;2022-07-03T01:46:28;96786.97;;;21.22;61.45
73024;BME280;61199;47.526;8.538;2022-07-03T01:48:54;96787.22;;;21.27;61.26
73024;BME280;61199;47.526;8.538;2022-07-03T01:51:20;96788.09;;;21.13;61.30
73024;BME280;61199;47.526;8.538;2022-07-03T01:53:48;96787.22;;;21.07;61.59
73024;BME280;61199;47.526;8.538;2022-07-03T01:56:14;96790.44;;;21.02;61.80
73024;BME280;61199;47.526;8.538;2022-07-03T01:58:40;96788.19;;;20.85;62.26
73024;BME280;61199;47.526;8.538;2022-07-03T02:01:37;96786.53;;;20.84;62.20
73024;BME280;61199;47.526;8.538;2022-07-03T02:06:40;96785.53;;;20.85;62.58
73024;BME280;61199;47.526;8.538;2022-07-03T02:09:09;96781.06;;;21.06;61.84
73024;BME280;61199;47.526;8.538;2022-07-03T02:11:38;96793.81;;;21.11;61.60
73024;BME280;61199;47.526;8.538;2022-07-03T02:14:12;96793.44;;;21.13;61.74
73024;BME280;61199;47.526;8.538;2022-07-03T02:19:52;96796.63;;;21.03;61.97
73024;BME280;61199;47.526;8.538;2022-07-03T02:22:19;96793.56;;;21.06;61.85
73024;BME280;61199;47.526;8.538;2022-07-03T02:24:46;96788.84;;;21.08;61.76
73024;BME280;61199;47.526;8.538;2022-07-03T02:27:19;96786.19;;;21.08;61.71
73024;BME280;61199;47.526;8.538;2022-07-03T02:30:05;96800.53;;;20.86;62.16
73024;BME280;61199;47.526;8.538;2022-07-03T02:32:38;96795.09;;;20.79;62.33
73024;BME280;61199;47.526;8.538;2022-07-03T02:35:08;96796.75;;;20.80;62.71
73024;BME280;61199;47.526;8.538;2022-07-03T02:37:41;96799.78;;;20.92;62.54
73024;BME280;61199;47.526;8.538;2022-07-03T02:40:26;96801.78;;;20.90;62.43
73024;BME280;61199;47.526;8.538;2022-07-03T02:45:32;96804.34;;;20.98;62.11
73024;BME280;61199;47.526;8.538;2022-07-03T02:48:10;96804.97;;;20.85;62.14
73024;BME280;61199;47.526;8.538;2022-07-03T02:50:40;96802.34;;;20.71;62.64
73024;BME280;61199;47.526;8.538;2022-07-03T02:53:33;96806.44;;;20.67;63.27
73024;BME280;61199;47.526;8.538;2022-07-03T02:56:14;96806.25;;;20.68;62.61
73024;BME280;61199;47.526;8.538;2022-07-03T02:58:53;96810.63;;;20.76;62.34
73024;BME280;61199;47.526;8.538;2022-07-03T03:01:37;96807.56;;;20.79;62.03
73024;BME280;61199;47.526;8.538;2022-07-03T03:04:14;96814.09;;;20.76;62.14
73024;BME280;61199;47.526;8.538;2022-07-03T03:06:51;96811.44;;;20.76;62.03
73024;BME280;61199;47.526;8.538;2022-07-03T03:09:38;96810.50;;;20.84;61.73
73024;BME280;61199;47.526;8.538;2022-07-03T03:12:05;96814.66;;;20.72;62.36
73024;BME280;61199;47.526;8.538;2022-07-03T03:14:42;96814.47;;;20.73;62.34
73024;BME280;61199;47.526;8.538;2022-07-03T03:17:09;96821.28;;;20.76;62.30
73024;BME280;61199;47.526;8.538;2022-07-03T03:19:46;96831.88;;;20.55;62.88
73024;BME280;61199;47.526;8.538;2022-07-03T03:25:02;96831.69;;;20.42;63.65
73024;BME280;61199;47.526;8.538;2022-07-03T03:27:28;96840.97;;;20.46;63.56
73024;BME280;61199;47.526;8.538;2022-07-03T03:29:54;96833.00;;;20.31;63.87
73024;BME280;61199;47.526;8.538;2022-07-03T03:32:20;96838.78;;;20.06;64.88
73024;BME280;61199;47.526;8.538;2022-07-03T03:34:47;96838.84;;;20.12;64.59
73024;BME280;61199;47.526;8.538;2022-07-03T03:37:12;96843.19;;;20.28;64.12
73024;BME280;61199;47.526;8.538;2022-07-03T03:39:38;96845.56;;;20.37;63.65
73024;BME280;61199;47.526;8.538;2022-07-03T03:42:04;96841.44;;;20.35;63.71
73024;BME280;61199;47.526;8.538;2022-07-03T03:44:29;96850.88;;;20.23;63.92
73024;BME280;61199;47.526;8.538;2022-07-03T03:46:55;96850.56;;;20.03;64.56
73024;BME280;61199;47.526;8.538;2022-07-03T03:49:21;96846.13;;;20.04;64.57
73024;BME280;61199;47.526;8.538;2022-07-03T03:51:46;96848.69;;;20.12;64.24
73024;BME280;61199;47.526;8.538;2022-07-03T03:54:11;96853.91;;;20.05;64.56
73024;BME280;61199;47.526;8.538;2022-07-03T03:56:37;96847.38;;;20.08;64.06
73024;BME280;61199;47.526;8.538;2022-07-03T03:59:02;96852.53;;;20.24;63.83
73024;BME280;61199;47.526;8.538;2022-07-03T04:01:27;96856.97;;;20.31;63.40
73024;BME280;61199;47.526;8.538;2022-07-03T04:03:53;96855.41;;;20.37;63.19
73024;BME280;61199;47.526;8.538;2022-07-03T04:06:21;96859.34;;;20.41;63.07
73024;BME280;61199;47.526;8.538;2022-07-03T04:08:46;96861.44;;;20.45;62.67
73024;BME280;61199;47.526;8.538;2022-07-03T04:11:11;96866.38;;;20.48;62.32
73024;BME280;61199;47.526;8.538;2022-07-03T04:13:37;96870.91;;;20.48;62.51
73024;BME280;61199;47.526;8.538;2022-07-03T04:16:02;96863.94;;;20.47;62.69
73024;BME280;61199;47.526;8.538;2022-07-03T04:18:28;96871.63;;;20.42;62.43
73024;BME280;61199;47.526;8.538;2022-07-03T04:20:53;96865.94;;;20.30;63.12
73024;BME280;61199;47.526;8.538;2022-07-03T04:23:18;96863.63;;;20.13;63.94
73024;BME280;61199;47.526;8.538;2022-07-03T04:25:44;96870.22;;;20.17;63.86
73024;BME280;61199;47.526;8.538;2022-07-03T04:28:09;96866.78;;;20.31;63.50
73024;BME280;61199;47.526;8.538;2022-07-03T04:30:34;96869.72;;;20.36;63.76
73024;BME280;61199;47.526;8.538;2022-07-03T04:33:00;96862.00;;;20.41;63.63
73024;BME280;61199;47.526;8.538;2022-07-03T04:35:25;96858.78;;;20.45;63.66
73024;BME280;61199;47.526;8.538;2022-07-03T04:37:50;96859.50;;;20.39;63.80
73024;BME280;61199;47.526;8.538;2022-07-03T04:40:16;96865.28;;;20.43;63.31
73024;BME280;61199;47.526;8.538;2022-07-03T04:42:41;96857.31;;;20.43;63.72
73024;BME280;61199;47.526;8.538;2022-07-03T04:45:07;96865.13;;;20.44;63.87
73024;BME280;61199;47.526;8.538;2022-07-03T04:47:32;96864.19;;;20.37;64.11
73024;BME280;61199;47.526;8.538;2022-07-03T04:49:57;96868.16;;;20.27;64.41
73024;BME280;61199;47.526;8.538;2022-07-03T04:52:23;96870.53;;;20.36;64.38
73024;BME280;61199;47.526;8.538;2022-07-03T04:54:48;96869.97;;;20.41;64.03
73024;BME280;61199;47.526;8.538;2022-07-03T04:57:14;96870.06;;;20.47;63.83
73024;BME280;61199;47.526;8.538;2022-07-03T04:59:39;96881.16;;;20.51;63.65
73024;BME280;61199;47.526;8.538;2022-07-03T05:02:05;96875.47;;;20.54;63.64
73024;BME280;61199;47.526;8.538;2022-07-03T05:04:30;96874.28;;;20.56;63.79
73024;BME280;61199;47.526;8.538;2022-07-03T05:06:56;96872.34;;;20.65;63.57
73024;BME280;61199;47.526;8.538;2022-07-03T05:09:21;96874.63;;;20.68;63.50
73024;BME280;61199;47.526;8.538;2022-07-03T05:11:46;96871.03;;;20.75;63.44
73024;BME280;61199;47.526;8.538;2022-07-03T05:14:12;96874.25;;;20.71;63.69
73024;BME280;61199;47.526;8.538;2022-07-03T05:16:37;96874.53;;;20.76;63.76
73024;BME280;61199;47.526;8.538;2022-07-03T05:19:03;96879.88;;;20.76;63.53
73024;BME280;61199;47.526;8.538;2022-07-03T05:21:28;96874.25;;;20.71;63.81
73024;BME280;61199;47.526;8.538;2022-07-03T05:23:53;96874.53;;;20.76;63.71
73024;BME280;61199;47.526;8.538;2022-07-03T05:26:19;96873.09;;;20.59;64.15
73024;BME280;61199;47.526;8.538;2022-07-03T05:28:45;96877.13;;;20.69;64.12
73024;BME280;61199;47.526;8.538;2022-07-03T05:31:10;96877.03;;;20.77;63.79
73024;BME280;61199;47.526;8.538;2022-07-03T05:33:36;96876.56;;;20.74;64.21
73024;BME280;61199;47.526;8.538;2022-07-03T05:36:02;96881.41;;;20.85;64.03
73024;BME280;61199;47.526;8.538;2022-07-03T05:38:28;96876.91;;;20.71;64.42
73024;BME280;61199;47.526;8.538;2022-07-03T05:41:12;96881.22;;;20.72;65.13
73024;BME280;61199;47.526;8.538;2022-07-03T05:43:37;96875.56;;;20.75;64.73
73024;BME280;61199;47.526;8.538;2022-07-03T05:46:03;96875.81;;;20.80;65.02
73024;BME280;61199;47.526;8.538;2022-07-03T05:48:29;96873.72;;;20.90;64.65
73024;BME280;61199;47.526;8.538;2022-07-03T05:50:55;96868.28;;;20.98;64.49
73024;BME280;61199;47.526;8.538;2022-07-03T05:53:20;96869.19;;;21.05;64.21
73024;BME280;61199;47.526;8.538;2022-07-03T05:55:46;96876.03;;;21.13;64.06
73024;BME280;61199;47.526;8.538;2022-07-03T05:58:11;96870.84;;;21.26;63.85
73024;BME280;61199;47.526;8.538;2022-07-03T06:00:36;96870.09;;;21.32;63.73
73024;BME280;61199;47.526;8.538;2022-07-03T06:03:02;96869.97;;;21.40;63.69
73024;BME280;61199;47.526;8.538;2022-07-03T06:05:28;96865.66;;;21.39;64.15
73024;BME280;61199;47.526;8.538;2022-07-03T06:07:53;96865.47;;;21.41;63.94
73024;BME280;61199;47.526;8.538;2022-07-03T06:10:19;96865.53;;;21.47;64.03
73024;BME280;61199;47.526;8.538;2022-07-03T06:12:44;96867.50;;;21.39;64.66
73024;BME280;61199;47.526;8.538;2022-07-03T06:15:10;96868.31;;;21.39;65.18
73024;BME280;61199;47.526;8.538;2022-07-03T06:17:35;96875.69;;;21.37;65.49
73024;BME280;61199;47.526;8.538;2022-07-03T06:20:02;96868.38;;;21.46;65.50
73024;BME280;61199;47.526;8.538;2022-07-03T06:22:27;96866.28;;;21.41;65.90
73024;BME280;61199;47.526;8.538;2022-07-03T06:24:53;96859.19;;;21.27;66.62
73024;BME280;61199;47.526;8.538;2022-07-03T06:27:18;96862.38;;;21.37;66.37
73024;BME280;61199;47.526;8.538;2022-07-03T06:29:43;96855.38;;;21.57;65.91
73024;BME280;61199;47.526;8.538;2022-07-03T06:32:08;96856.41;;;21.56;65.82
73024;BME280;61199;47.526;8.538;2022-07-03T06:34:34;96845.34;;;21.59;65.83
73024;BME280;61199;47.526;8.538;2022-07-03T06:36:59;96854.13;;;21.74;65.22
73024;BME280;61199;47.526;8.538;2022-07-03T06:39:24;96857.84;;;21.80;64.70
73024;BME280;61199;47.526;8.538;2022-07-03T06:41:49;96856.25;;;21.85;64.62
73024;BME280;61199;47.526;8.538;2022-07-03T06:44:15;96860.47;;;21.73;65.79
73024;BME280;61199;47.526;8.538;2022-07-03T06:46:40;96849.94;;;21.65;66.13
73024;BME280;61199;47.526;8.538;2022-07-03T06:49:05;96856.28;;;21.64;65.45
73024;BME280;61199;47.526;8.538;2022-07-03T06:51:30;96853.84;;;21.69;64.64
73024;BME280;61199;47.526;8.538;2022-07-03T06:53:58;96854.13;;;21.74;65.89
73024;BME280;61199;47.526;8.538;2022-07-03T06:56:24;96853.06;;;21.96;64.92
73024;BME280;61199;47.526;8.538;2022-07-03T06:58:49;96850.53;;;22.16;64.50
73024;BME280;61199;47.526;8.538;2022-07-03T07:01:14;96847.16;;;22.35;64.11
73024;BME280;61199;47.526;8.538;2022-07-03T07:03:39;96850.53;;;22.50;63.70
73024;BME280;61199;47.526;8.538;2022-07-03T07:06:05;96845.25;;;22.56;63.20
73024;BME280;61199;47.526;8.538;2022-07-03T07:08:30;96849.63;;;22.70;62.42
73024;BME280;61199;47.526;8.538;2022-07-03T07:10:55;96838.94;;;22.77;61.94
73024;BME280;61199;47.526;8.538;2022-07-03T07:13:21;96841.88;;;22.82;61.30
73024;BME280;61199;47.526;8.538;2022-07-03T07:15:46;96839.22;;;22.88;61.40
73024;BME280;61199;47.526;8.538;2022-07-03T07:18:11;96834.53;;;23.03;60.73
73024;BME280;61199;47.526;8.538;2022-07-03T07:20:37;96837.63;;;23.00;60.94
73024;BME280;61199;47.526;8.538;2022-07-03T07:23:02;96840.66;;;22.84;60.56
73024;BME280;61199;47.526;8.538;2022-07-03T07:25:27;96829.69;;;22.73;61.60
73024;BME280;61199;47.526;8.538;2022-07-03T07:27:53;96828.56;;;22.54;61.90
73024;BME280;61199;47.526;8.538;2022-07-03T07:30:18;96819.63;;;22.68;61.16
73024;BME280;61199;47.526;8.538;2022-07-03T07:32:43;96818.84;;;22.87;60.57
73024;BME280;61199;47.526;8.538;2022-07-03T07:35:08;96816.44;;;23.05;61.07
73024;BME280;61199;47.526;8.538;2022-07-03T07:37:34;96815.28;;;23.21;59.40
73024;BME280;61199;47.526;8.538;2022-07-03T07:39:59;96816.13;;;23.34;58.67
73024;BME280;61199;47.526;8.538;2022-07-03T07:42:24;96821.03;;;23.24;58.18
73024;BME280;61199;47.526;8.538;2022-07-03T07:44:50;96811.19;;;23.44;57.94
73024;BME280;61199;47.526;8.538;2022-07-03T07:47:15;96813.25;;;23.42;57.20
73024;BME280;61199;47.526;8.538;2022-07-03T07:49:40;96814.91;;;23.43;56.37
73024;BME280;61199;47.526;8.538;2022-07-03T07:52:06;96814.69;;;23.45;56.14
73024;BME280;61199;47.526;8.538;2022-07-03T07:54:31;96813.88;;;23.44;55.70
73024;BME280;61199;47.526;8.538;2022-07-03T07:56:57;96811.81;;;23.40;54.52
73024;BME280;61199;47.526;8.538;2022-07-03T07:59:22;96810.56;;;23.42;54.43
73024;BME280;61199;47.526;8.538;2022-07-03T08:01:47;96814.91;;;23.43;52.83
73024;BME280;61199;47.526;8.538;2022-07-03T08:04:31;96813.25;;;23.42;52.56
73024;BME280;61199;47.526;8.538;2022-07-03T08:07:14;96808.31;;;23.59;53.67
73024;BME280;61199;47.526;8.538;2022-07-03T08:09:40;96808.75;;;23.82;54.18
73024;BME280;61199;47.526;8.538;2022-07-03T08:12:05;96798.06;;;23.88;54.16
73024;BME280;61199;47.526;8.538;2022-07-03T08:14:30;96800.72;;;23.95;53.40
73024;BME280;61199;47.526;8.538;2022-07-03T08:16:56;96809.38;;;24.03;53.72
73024;BME280;61199;47.526;8.538;2022-07-03T08:19:21;96800.47;;;24.22;52.83
73024;BME280;61199;47.526;8.538;2022-07-03T08:21:46;96803.72;;;24.37;52.36
73024;BME280;61199;47.526;8.538;2022-07-03T08:24:11;96808.88;;;24.38;51.29
73024;BME280;61199;47.526;8.538;2022-07-03T08:26:38;96803.09;;;24.35;48.45
73024;BME280;61199;47.526;8.538;2022-07-03T08:29:03;96797.56;;;24.30;46.91
73024;BME280;61199;47.526;8.538;2022-07-03T08:31:28;96801.50;;;24.28;46.20
73024;BME280;61199;47.526;8.538;2022-07-03T08:33:53;96799.38;;;24.36;47.27
73024;BME280;61199;47.526;8.538;2022-07-03T08:36:19;96794.41;;;24.52;47.04
73024;BME280;61199;47.526;8.538;2022-07-03T08:38:44;96801.00;;;24.50;45.55
73024;BME280;61199;47.526;8.538;2022-07-03T08:41:10;96795.44;;;24.51;46.26
73024;BME280;61199;47.526;8.538;2022-07-03T08:43:38;96802.25;;;24.60;45.71
73024;BME280;61199;47.526;8.538;2022-07-03T08:46:05;96801.63;;;24.65;46.08
73024;BME280;61199;47.526;8.538;2022-07-03T08:48:32;96808.34;;;24.80;45.66
73024;BME280;61199;47.526;8.538;2022-07-03T08:51:00;96803.63;;;24.76;44.83
73024;BME280;61199;47.526;8.538;2022-07-03T08:53:26;96807.34;;;24.75;45.38
73024;BME280;61199;47.526;8.538;2022-07-03T08:55:52;96808.97;;;24.76;45.52
73024;BME280;61199;47.526;8.538;2022-07-03T08:58:17;96800.13;;;24.69;44.55
73024;BME280;61199;47.526;8.538;2022-07-03T09:00:46;96806.47;;;24.81;45.14
73024;BME280;61199;47.526;8.538;2022-07-03T09:03:12;96803.75;;;24.94;44.56
73024;BME280;61199;47.526;8.538;2022-07-03T09:05:39;96805.91;;;25.10;44.50
73024;BME280;61199;47.526;8.538;2022-07-03T09:08:07;96799.69;;;25.16;44.83
73024;BME280;61199;47.526;8.538;2022-07-03T09:10:32;96793.88;;;25.19;44.87
73024;BME280;61199;47.526;8.538;2022-07-03T09:12:58;96790.13;;;25.33;45.05
73024;BME280;61199;47.526;8.538;2022-07-03T09:15:23;96786.88;;;25.18;45.14
73024;BME280;61199;47.526;8.538;2022-07-03T09:18:05;96789.00;;;25.47;44.64
73024;BME280;61199;47.526;8.538;2022-07-03T09:20:37;96789.41;;;25.44;43.24
73024;BME280;61199;47.526;8.538;2022-07-03T09:23:18;96783.63;;;25.47;42.62
73024;BME280;61199;47.526;8.538;2022-07-03T09:26:00;96779.78;;;25.61;43.41
73024;BME280;61199;47.526;8.538;2022-07-03T09:28:47;96782.03;;;25.64;43.24
73024;BME280;61199;47.526;8.538;2022-07-03T09:31:15;96781.16;;;25.70;43.94
73024;BME280;61199;47.526;8.538;2022-07-03T09:33:51;96777.94;;;25.86;43.55
73024;BME280;61199;47.526;8.538;2022-07-03T09:36:17;96781.63;;;25.91;43.58
73024;BME280;61199;47.526;8.538;2022-07-03T09:38:45;96773.28;;;25.99;43.59
73024;BME280;61199;47.526;8.538;2022-07-03T09:41:11;96770.97;;;26.03;42.98
73024;BME280;61199;47.526;8.538;2022-07-03T09:43:41;96778.31;;;26.14;43.36
73024;BME280;61199;47.526;8.538;2022-07-03T09:46:06;96771.91;;;26.33;42.94
73024;BME280;61199;47.526;8.538;2022-07-03T09:48:33;96766.97;;;26.48;42.77
73024;BME280;61199;47.526;8.538;2022-07-03T09:53:48;96763.88;;;26.51;42.33
73024;BME280;61199;47.526;8.538;2022-07-03T09:56:13;96768.53;;;26.73;42.16
73024;BME280;61199;47.526;8.538;2022-07-03T09:58:39;96766.81;;;26.79;41.74
73024;BME280;61199;47.526;8.538;2022-07-03T10:01:20;96765.56;;;26.93;41.52
73024;BME280;61199;47.526;8.538;2022-07-03T10:03:47;96757.56;;;27.04;41.68
73024;BME280;61199;47.526;8.538;2022-07-03T10:06:13;96755.16;;;26.85;41.15
73024;BME280;61199;47.526;8.538;2022-07-03T10:08:39;96758.13;;;26.95;41.54
73024;BME280;61199;47.526;8.538;2022-07-03T10:11:04;96756.81;;;26.86;41.69
73024;BME280;61199;47.526;8.538;2022-07-03T10:13:32;96761.19;;;26.98;42.00
73024;BME280;61199;47.526;8.538;2022-07-03T10:15:58;96760.78;;;27.13;41.51
73024;BME280;61199;47.526;8.538;2022-07-03T10:18:27;96754.25;;;27.20;41.29
73024;BME280;61199;47.526;8.538;2022-07-03T10:20:57;96757.78;;;27.32;40.81
73024;BME280;61199;47.526;8.538;2022-07-03T10:23:22;96759.94;;;27.42;40.52
73024;BME280;61199;47.526;8.538;2022-07-03T10:25:49;96757.34;;;27.47;40.15
73024;BME280;61199;47.526;8.538;2022-07-03T10:28:16;96751.06;;;27.53;39.92
73024;BME280;61199;47.526;8.538;2022-07-03T10:30:48;96757.25;;;27.65;39.49
73024;BME280;61199;47.526;8.538;2022-07-03T10:33:14;96753.88;;;27.69;39.39
73024;BME280;61199;47.526;8.538;2022-07-03T10:35:41;96747.22;;;27.72;38.84
73024;BME280;61199;47.526;8.538;2022-07-03T10:40:52;96752.91;;;27.41;38.65
73024;BME280;61199;47.526;8.538;2022-07-03T10:43:39;96738.88;;;27.50;38.20
73024;BME280;61199;47.526;8.538;2022-07-03T10:46:25;96745.22;;;27.67;38.64
73024;BME280;61199;47.526;8.538;2022-07-03T10:48:52;96741.00;;;27.60;38.44
73024;BME280;61199;47.526;8.538;2022-07-03T10:51:21;96741.59;;;27.62;38.50
73024;BME280;61199;47.526;8.538;2022-07-03T10:53:47;96737.25;;;27.61;38.11
73024;BME280;61199;47.526;8.538;2022-07-03T10:56:12;96740.66;;;27.56;37.10
73024;BME280;61199;47.526;8.538;2022-07-03T10:59:00;96739.75;;;27.21;36.47
73024;BME280;61199;47.526;8.538;2022-07-03T11:01:29;96735.22;;;27.33;36.30
73024;BME280;61199;47.526;8.538;2022-07-03T11:03:58;96733.31;;;27.22;36.79
73024;BME280;61199;47.526;8.538;2022-07-03T11:09:14;96726.81;;;27.30;38.22
73024;BME280;61199;47.526;8.538;2022-07-03T11:11:41;96731.38;;;27.52;38.70
73024;BME280;61199;47.526;8.538;2022-07-03T11:14:27;96723.72;;;27.79;38.44
73024;BME280;61199;47.526;8.538;2022-07-03T11:17:21;96722.88;;;27.67;36.55
73024;BME280;61199;47.526;8.538;2022-07-03T11:19:48;96731.78;;;27.79;37.19
73024;BME280;61199;47.526;8.538;2022-07-03T11:25:09;96711.63;;;28.04;36.85
73024;BME280;61199;47.526;8.538;2022-07-03T11:27:34;96716.19;;;28.15;37.27
73024;BME280;61199;47.526;8.538;2022-07-03T11:30:00;96710.69;;;28.21;36.54
73024;BME280;61199;47.526;8.538;2022-07-03T11:32:42;96701.78;;;28.09;36.41
73024;BME280;61199;47.526;8.538;2022-07-03T11:35:08;96702.81;;;28.20;36.65
73024;BME280;61199;47.526;8.538;2022-07-03T11:37:33;96691.81;;;28.21;35.74
73024;BME280;61199;47.526;8.538;2022-07-03T11:40:03;96690.19;;;28.09;36.15
73024;BME280;61199;47.526;8.538;2022-07-03T11:42:35;96683.97;;;28.08;36.25
73024;BME280;61199;47.526;8.538;2022-07-03T11:45:00;96691.91;;;28.26;36.10
73024;BME280;61199;47.526;8.538;2022-07-03T11:47:27;96691.56;;;28.34;36.30
73024;BME280;61199;47.526;8.538;2022-07-03T11:49:53;96674.53;;;28.45;36.49
73024;BME280;61199;47.526;8.538;2022-07-03T11:52:32;96674.47;;;28.68;35.79
73024;BME280;61199;47.526;8.538;2022-07-03T11:54:59;96671.91;;;28.90;35.09
73024;BME280;61199;47.526;8.538;2022-07-03T11:57:24;96669.97;;;29.02;34.93
73024;BME280;61199;47.526;8.538;2022-07-03T11:59:51;96663.47;;;29.14;35.32
73024;BME280;61199;47.526;8.538;2022-07-03T12:02:19;96664.75;;;29.28;35.02
73024;BME280;61199;47.526;8.538;2022-07-03T12:04:44;96665.56;;;29.45;34.68
73024;BME280;61199;47.526;8.538;2022-07-03T12:07:09;96662.00;;;29.56;34.78
73024;BME280;61199;47.526;8.538;2022-07-03T12:09:35;96655.06;;;29.60;34.20
73024;BME280;61199;47.526;8.538;2022-07-03T12:12:06;96660.13;;;29.40;33.59
73024;BME280;61199;47.526;8.538;2022-07-03T12:14:49;96664.25;;;28.98;34.29
73024;BME280;61199;47.526;8.538;2022-07-03T12:17:16;96658.53;;;29.11;34.23
73024;BME280;61199;47.526;8.538;2022-07-03T12:27:23;96651.59;;;29.65;33.40
73024;BME280;61199;47.526;8.538;2022-07-03T12:29:49;96651.44;;;29.71;33.40
73024;BME280;61199;47.526;8.538;2022-07-03T12:32:14;96656.75;;;29.66;33.09
73024;BME280;61199;47.526;8.538;2022-07-03T12:34:40;96649.84;;;29.54;33.33
73024;BME280;61199;47.526;8.538;2022-07-03T12:37:05;96646.28;;;29.53;32.46
73024;BME280;61199;47.526;8.538;2022-07-03T12:39:44;96646.81;;;29.50;33.23
73024;BME280;61199;47.526;8.538;2022-07-03T12:42:21;96642.19;;;29.51;32.88
73024;BME280;61199;47.526;8.538;2022-07-03T12:44:59;96639.72;;;29.16;32.94
73024;BME280;61199;47.526;8.538;2022-07-03T12:47:26;96643.66;;;29.25;33.67
73024;BME280;61199;47.526;8.538;2022-07-03T12:49:58;96633.34;;;29.55;33.71
73024;BME280;61199;47.526;8.538;2022-07-03T12:52:25;96626.13;;;29.44;33.21
73024;BME280;61199;47.526;8.538;2022-07-03T12:54:51;96622.03;;;29.75;32.64
73024;BME280;61199;47.526;8.538;2022-07-03T12:57:21;96627.19;;;29.98;32.83
73024;BME280;61199;47.526;8.538;2022-07-03T13:00:12;96620.44;;;29.95;32.72
73024;BME280;61199;47.526;8.538;2022-07-03T13:02:42;96624.06;;;30.22;31.75
73024;BME280;61199;47.526;8.538;2022-07-03T13:05:16;96614.88;;;30.23;32.56
73024;BME280;61199;47.526;8.538;2022-07-03T13:07:42;96608.75;;;30.33;32.70
73024;BME280;61199;47.526;8.538;2022-07-03T13:10:08;96602.19;;;30.50;32.34
73024;BME280;61199;47.526;8.538;2022-07-03T13:12:33;96581.84;;;30.69;31.82
73024;BME280;61199;47.526;8.538;2022-07-03T13:15:03;96590.72;;;30.91;32.18
73024;BME280;61199;47.526;8.538;2022-07-03T13:20:21;96593.69;;;31.21;31.22
73024;BME280;61199;47.526;8.538;2022-07-03T13:22:50;96585.16;;;31.34;31.88
73024;BME280;61199;47.526;8.538;2022-07-03T13:25:15;96577.63;;;31.46;31.17
73024;BME280;61199;47.526;8.538;2022-07-03T13:27:41;96582.44;;;31.39;30.94
73024;BME280;61199;47.526;8.538;2022-07-03T13:30:08;96580.97;;;30.90;29.80
73024;BME280;61199;47.526;8.538;2022-07-03T13:32:34;96586.19;;;30.70;30.95
73024;BME280;61199;47.526;8.538;2022-07-03T13:34:59;96582.16;;;30.73;31.82
73024;BME280;61199;47.526;8.538;2022-07-03T13:37:24;96580.13;;;30.90;29.96
73024;BME280;61199;47.526;8.538;2022-07-03T13:39:49;96579.97;;;31.01;30.48
73024;BME280;61199;47.526;8.538;2022-07-03T13:42:15;96576.25;;;31.07;29.69
73024;BME280;61199;47.526;8.538;2022-07-03T13:44:40;96576.41;;;31.22;30.69
73024;BME280;61199;47.526;8.538;2022-07-03T13:47:06;96575.47;;;31.48;30.76
73024;BME280;61199;47.526;8.538;2022-07-03T13:49:32;96579.97;;;31.69;30.68